createdAt,value
2017-11-07T00:00:58.948Z,93.8
2017-11-07T00:02:11.569Z,93.89
2017-11-07T00:03:24.148Z,93.99
2017-11-07T00:04:36.417Z,93.7
2017-11-07T00:05:48.403Z,93.8
2017-11-07T00:07:01.010Z,94.18
2017-11-07T00:08:13.330Z,94.18
2017-11-07T00:09:25.940Z,93.8
2017-11-07T00:10:38.215Z,93.89
2017-11-07T00:11:50.480Z,94.56
2017-11-07T00:13:03.077Z,94.37
2017-11-07T00:14:15.683Z,94.37
2017-11-07T00:15:28.279Z,94.37
2017-11-07T00:16:40.877Z,94.37
2017-11-07T00:17:53.487Z,94.27
2017-11-07T00:19:06.111Z,94.56
2017-11-07T00:20:18.386Z,94.65
2017-11-07T00:21:30.683Z,94.74
2017-11-07T00:22:43.280Z,94.65
2017-11-07T00:23:55.567Z,94.46
2017-11-07T00:25:08.183Z,94.65
2017-11-07T00:26:20.455Z,94.74
2017-11-07T00:27:33.061Z,94.89
2017-11-07T00:28:45.702Z,94.46
2017-11-07T00:29:57.993Z,94.65
2017-11-07T00:31:10.641Z,94.46
2017-11-07T00:32:23.235Z,94.37
2017-11-07T00:33:35.536Z,94.65
2017-11-07T00:34:48.173Z,94.89
2017-11-07T00:36:00.157Z,94.46
2017-11-07T00:37:12.093Z,94.37
2017-11-07T00:38:24.718Z,94.6
2017-11-07T00:39:37.317Z,94.46
2017-11-07T00:40:49.630Z,94.27
2017-11-07T00:42:01.926Z,94.27
2017-11-07T00:43:13.880Z,94.6
2017-11-07T00:44:26.500Z,94.37
2017-11-07T00:45:38.797Z,94.51
2017-11-07T00:46:51.392Z,94.32
2017-11-07T00:48:03.676Z,94.42
2017-11-07T00:49:16.285Z,94.37
2017-11-07T00:50:28.579Z,94.6
2017-11-07T00:51:41.191Z,94.32
2017-11-07T00:52:52.848Z,94.42
2017-11-07T00:54:05.476Z,94.42
2017-11-07T00:55:17.776Z,94.51
2017-11-07T00:56:30.380Z,94.46
2017-11-07T00:57:42.993Z,94.42
2017-11-07T00:58:55.594Z,94.37
2017-11-07T01:00:08.467Z,94.32
2017-11-07T01:01:20.781Z,94.51
2017-11-07T01:02:33.398Z,94.42
2017-11-07T01:03:46.006Z,94.27
2017-11-07T01:04:58.625Z,94.27
2017-11-07T01:06:10.896Z,94.27
2017-11-07T01:07:23.485Z,94.18
2017-11-07T01:08:36.087Z,94.18
2017-11-07T01:09:48.389Z,94.32
2017-11-07T01:11:01.021Z,94.46
2017-11-07T01:12:13.299Z,94.18
2017-11-07T01:13:25.912Z,94.6
2017-11-07T01:14:38.237Z,94.42
2017-11-07T01:15:50.852Z,94.46
2017-11-07T01:17:03.482Z,94.51
2017-11-07T01:18:15.449Z,94.51
2017-11-07T01:19:28.038Z,94.51
2017-11-07T01:20:40.647Z,94.51
2017-11-07T01:21:52.910Z,94.46
2017-11-07T01:23:05.483Z,94.46
2017-11-07T01:24:17.770Z,94.18
2017-11-07T01:25:29.747Z,94.23
2017-11-07T01:26:41.696Z,94.18
2017-11-07T01:27:54.311Z,94.6
2017-11-07T01:29:06.585Z,94.51
2017-11-07T01:30:19.163Z,94.51
2017-11-07T01:31:31.822Z,94.51
2017-11-07T01:32:44.676Z,94.6
2017-11-07T01:33:56.968Z,94.46
2017-11-07T01:35:08.941Z,94.51
2017-11-07T01:36:21.254Z,94.51
2017-11-07T01:37:33.854Z,94.74
2017-11-07T01:38:46.126Z,94.6
2017-11-07T01:39:58.727Z,94.7
2017-11-07T01:41:11.319Z,94.6
2017-11-07T01:42:23.620Z,94.46
2017-11-07T01:43:36.253Z,94.56
2017-11-07T01:44:48.868Z,94.56
2017-11-07T01:46:01.480Z,94.51
2017-11-07T01:47:14.093Z,94.46
2017-11-07T01:48:26.699Z,94.6
2017-11-07T01:49:39.309Z,94.27
2017-11-07T01:50:51.931Z,94.37
2017-11-07T01:52:04.530Z,94.18
2017-11-07T01:53:17.126Z,94.27
2017-11-07T01:54:29.397Z,94.37
2017-11-07T01:55:42.014Z,94.51
2017-11-07T01:56:54.610Z,94.65
2017-11-07T01:58:07.208Z,94.51
2017-11-07T01:59:19.154Z,94.51
2017-11-07T02:00:31.664Z,94.51
2017-11-07T02:01:43.942Z,94.51
2017-11-07T02:02:56.230Z,94.32
2017-11-07T02:04:08.829Z,94.42
2017-11-07T02:05:21.421Z,94.37
2017-11-07T02:06:33.703Z,94.27
2017-11-07T02:07:45.989Z,94.42
2017-11-07T02:08:58.596Z,94.04
2017-11-07T02:10:11.212Z,94.08
2017-11-07T02:11:23.486Z,94.51
2017-11-07T02:12:35.757Z,94.46
2017-11-07T02:13:48.355Z,94.13
2017-11-07T02:15:00.665Z,94.6
2017-11-07T02:16:13.262Z,94.51
2017-11-07T02:17:25.860Z,94.51
2017-11-07T02:18:38.464Z,94.18
2017-11-07T02:19:51.052Z,94.7
2017-11-07T02:21:03.647Z,94.51
2017-11-07T02:22:16.261Z,94.08
2017-11-07T02:23:28.571Z,94.27
2017-11-07T02:24:41.184Z,94.51
2017-11-07T02:25:53.472Z,94.56
2017-11-07T02:27:05.121Z,94.18
2017-11-07T02:28:17.725Z,94.46
2017-11-07T02:29:30.322Z,94.08
2017-11-07T02:30:42.618Z,94.18
2017-11-07T02:31:54.934Z,94.56
2017-11-07T02:33:07.778Z,94.27
2017-11-07T02:34:20.403Z,94.37
2017-11-07T02:35:32.689Z,94.37
2017-11-07T02:36:44.996Z,93.99
2017-11-07T02:37:57.589Z,94.46
2017-11-07T02:39:09.574Z,93.94
2017-11-07T02:40:22.183Z,94.37
2017-11-07T02:41:34.778Z,93.89
2017-11-07T02:42:47.043Z,93.89
2017-11-07T02:43:59.668Z,94.08
2017-11-07T02:45:12.315Z,93.99
2017-11-07T02:46:24.982Z,94.08
2017-11-07T02:47:37.267Z,93.99
2017-11-07T02:48:49.558Z,94.08
2017-11-07T02:50:01.547Z,94.18
2017-11-07T02:51:14.184Z,93.99
2017-11-07T02:52:26.808Z,94.18
2017-11-07T02:53:39.102Z,93.99
2017-11-07T02:54:51.755Z,94.18
2017-11-07T02:56:04.032Z,94.08
2017-11-07T02:57:16.658Z,94.08
2017-11-07T02:58:29.258Z,94.08
2017-11-07T02:59:41.804Z,93.99
2017-11-07T03:00:54.408Z,94.08
2017-11-07T03:02:06.694Z,94.37
2017-11-07T03:03:19.324Z,94.37
2017-11-07T03:04:31.574Z,94.08
2017-11-07T03:05:43.562Z,93.7
2017-11-07T03:06:55.875Z,93.8
2017-11-07T03:08:08.497Z,94.08
2017-11-07T03:09:21.121Z,93.99
2017-11-07T03:10:33.722Z,94.18
2017-11-07T03:11:46.336Z,93.99
2017-11-07T03:12:58.627Z,93.89
2017-11-07T03:14:11.237Z,93.51
2017-11-07T03:15:23.193Z,93.65
2017-11-07T03:16:35.827Z,93.7
2017-11-07T03:17:48.446Z,93.61
2017-11-07T03:19:01.042Z,93.32
2017-11-07T03:20:13.636Z,93.75
2017-11-07T03:21:25.912Z,93.56
2017-11-07T03:22:38.530Z,93.42
2017-11-07T03:23:50.824Z,93.65
2017-11-07T03:25:03.420Z,93.42
2017-11-07T03:26:15.713Z,93.61
2017-11-07T03:27:27.663Z,93.56
2017-11-07T03:28:39.947Z,93.51
2017-11-07T03:29:52.581Z,93.61
2017-11-07T03:31:04.553Z,93.51
2017-11-07T03:32:16.840Z,93.42
2017-11-07T03:33:29.128Z,93.37
2017-11-07T03:34:41.381Z,93.56
2017-11-07T03:35:53.957Z,94.13
2017-11-07T03:37:06.248Z,93.56
2017-11-07T03:38:18.535Z,93.61
2017-11-07T03:39:30.817Z,94.23
2017-11-07T03:40:43.438Z,93.89
2017-11-07T03:41:55.736Z,93.99
2017-11-07T03:43:08.579Z,93.61
2017-11-07T03:44:21.225Z,93.99
2017-11-07T03:45:33.834Z,93.99
2017-11-07T03:46:46.466Z,93.99
2017-11-07T03:47:58.737Z,94.27
2017-11-07T03:49:11.358Z,94.27
2017-11-07T03:50:23.625Z,94.27
2017-11-07T03:51:36.228Z,94.18
2017-11-07T03:52:48.868Z,94.08
2017-11-07T03:54:01.481Z,93.89
2017-11-07T03:55:13.758Z,94.08
2017-11-07T03:56:26.048Z,94.27
2017-11-07T03:57:38.315Z,93.99
2017-11-07T03:58:50.598Z,94.46
2017-11-07T04:00:03.232Z,94.37
2017-11-07T04:01:15.864Z,94.27
2017-11-07T04:02:28.456Z,94.18
2017-11-07T04:03:40.736Z,94.46
2017-11-07T04:04:53.289Z,94.46
2017-11-07T04:06:05.870Z,94.56
2017-11-07T04:07:18.143Z,94.56
2017-11-07T04:08:30.420Z,94.56
2017-11-07T04:09:43.080Z,94.27
2017-11-07T04:10:55.692Z,94.27
2017-11-07T04:12:07.674Z,94.37
2017-11-07T04:13:19.970Z,94.27
2017-11-07T04:14:32.255Z,94.56
2017-11-07T04:15:44.559Z,94.56
2017-11-07T04:16:57.186Z,93.8
2017-11-07T04:18:09.797Z,94.27
2017-11-07T04:19:22.090Z,93.8
2017-11-07T04:20:34.722Z,94.56
2017-11-07T04:21:47.328Z,94.37
2017-11-07T04:22:59.599Z,94.37
2017-11-07T04:24:12.214Z,94.46
2017-11-07T04:25:24.808Z,94.18
2017-11-07T04:26:37.122Z,94.37
2017-11-07T04:27:49.735Z,94.27
2017-11-07T04:29:02.034Z,94.27
2017-11-07T04:30:14.656Z,93.99
2017-11-07T04:31:26.593Z,93.89
2017-11-07T04:32:39.218Z,93.99
2017-11-07T04:33:51.525Z,94.18
2017-11-07T04:35:04.138Z,93.89
2017-11-07T04:36:16.429Z,93.99
2017-11-07T04:37:28.959Z,93.7
2017-11-07T04:38:41.574Z,93.89
2017-11-07T04:39:54.175Z,93.99
2017-11-07T04:41:06.760Z,93.89
2017-11-07T04:42:19.057Z,93.51
2017-11-07T04:43:31.961Z,93.7
2017-11-07T04:44:44.234Z,93.99
2017-11-07T04:45:56.870Z,93.8
2017-11-07T04:47:08.521Z,93.8
2017-11-07T04:48:21.108Z,94.18
2017-11-07T04:49:33.712Z,93.99
2017-11-07T04:50:46.342Z,93.99
2017-11-07T04:51:58.652Z,93.89
2017-11-07T04:53:11.232Z,94.27
2017-11-07T04:54:23.843Z,94.27
2017-11-07T04:55:36.463Z,94.08
2017-11-07T04:56:48.790Z,94.27
2017-11-07T04:58:01.415Z,93.7
2017-11-07T04:59:13.701Z,93.99
2017-11-07T05:00:25.966Z,93.99
2017-11-07T05:01:38.270Z,93.8
2017-11-07T05:02:50.230Z,93.89
2017-11-07T05:04:02.188Z,93.32
2017-11-07T05:05:14.823Z,94.08
2017-11-07T05:06:27.103Z,93.32
2017-11-07T05:07:39.712Z,93.32
2017-11-07T05:08:52.348Z,93.61
2017-11-07T05:10:04.564Z,93.23
2017-11-07T05:11:16.849Z,93.7
2017-11-07T05:12:29.148Z,93.61
2017-11-07T05:13:41.449Z,93.51
2017-11-07T05:14:53.741Z,93.42
2017-11-07T05:16:05.700Z,93.7
2017-11-07T05:17:17.689Z,93.51
2017-11-07T05:18:29.663Z,93.7
2017-11-07T05:19:41.926Z,93.51
2017-11-07T05:20:54.514Z,93.61
2017-11-07T05:22:06.798Z,93.23
2017-11-07T05:23:19.413Z,93.32
2017-11-07T05:24:32.038Z,93.51
2017-11-07T05:25:44.646Z,93.51
2017-11-07T05:26:57.242Z,93.51
2017-11-07T05:28:09.525Z,93.32
2017-11-07T05:29:21.496Z,93.23
2017-11-07T05:30:33.809Z,93.51
2017-11-07T05:31:46.085Z,93.61
2017-11-07T05:32:58.057Z,93.7
2017-11-07T05:34:10.026Z,93.42
2017-11-07T05:35:22.323Z,93.7
2017-11-07T05:36:34.937Z,93.61
2017-11-07T05:37:47.212Z,93.32
2017-11-07T05:38:59.487Z,93.99
2017-11-07T05:40:11.781Z,93.8
2017-11-07T05:41:24.379Z,93.8
2017-11-07T05:42:37.252Z,93.7
2017-11-07T05:43:49.218Z,93.75
2017-11-07T05:45:01.262Z,93.8
2017-11-07T05:46:13.857Z,93.75
2017-11-07T05:47:26.456Z,94.13
2017-11-07T05:48:38.731Z,94.23
2017-11-07T05:49:51.011Z,93.94
2017-11-07T05:51:03.317Z,93.94
2017-11-07T05:52:15.912Z,94.13
2017-11-07T05:53:27.908Z,94.13
2017-11-07T05:54:40.542Z,94.23
2017-11-07T05:55:53.146Z,94.23
2017-11-07T05:57:05.101Z,93.94
2017-11-07T05:58:17.694Z,94.13
2017-11-07T05:59:30.313Z,93.94
2017-11-07T06:00:41.974Z,94.04
2017-11-07T06:01:54.596Z,93.94
2017-11-07T06:03:06.861Z,93.75
2017-11-07T06:04:19.125Z,94.13
2017-11-07T06:05:31.394Z,93.65
2017-11-07T06:06:43.985Z,93.84
2017-11-07T06:07:56.602Z,94.04
2017-11-07T06:09:09.205Z,93.84
2017-11-07T06:10:21.762Z,93.84
2017-11-07T06:11:34.385Z,93.84
2017-11-07T06:12:46.985Z,93.94
2017-11-07T06:13:59.585Z,93.94
2017-11-07T06:15:12.201Z,93.65
2017-11-07T06:16:24.475Z,93.84
2017-11-07T06:17:36.767Z,93.94
2017-11-07T06:18:48.748Z,93.84
2017-11-07T06:20:01.361Z,93.84
2017-11-07T06:21:13.305Z,93.65
2017-11-07T06:22:25.577Z,93.75
2017-11-07T06:23:37.852Z,93.84
2017-11-07T06:24:50.477Z,93.65
2017-11-07T06:26:03.086Z,94.04
2017-11-07T06:27:15.387Z,93.75
2017-11-07T06:28:27.681Z,94.13
2017-11-07T06:29:39.998Z,94.23
2017-11-07T06:30:52.598Z,94.51
2017-11-07T06:32:05.186Z,94.13
2017-11-07T06:33:17.815Z,94.23
2017-11-07T06:34:30.425Z,94.42
2017-11-07T06:35:43.055Z,94.23
2017-11-07T06:36:55.343Z,94.18
2017-11-07T06:38:07.640Z,94.42
2017-11-07T06:39:19.919Z,94.42
2017-11-07T06:40:32.509Z,93.75
2017-11-07T06:41:45.107Z,94.13
2017-11-07T06:42:57.700Z,93.94
2017-11-07T06:44:09.667Z,93.75
2017-11-07T06:45:22.245Z,93.94
2017-11-07T06:46:34.534Z,93.75
2017-11-07T06:47:47.154Z,93.75
2017-11-07T06:48:59.779Z,94.51
2017-11-07T06:50:12.378Z,94.32
2017-11-07T06:51:24.688Z,94.13
2017-11-07T06:52:37.309Z,94.08
2017-11-07T06:53:49.589Z,94.18
2017-11-07T06:55:02.238Z,94.23
2017-11-07T06:56:13.899Z,94.18
2017-11-07T06:57:26.499Z,94.32
2017-11-07T06:58:39.338Z,94.32
2017-11-07T06:59:51.618Z,94.18
2017-11-07T07:01:03.886Z,94.08
2017-11-07T07:02:15.831Z,94.18
2017-11-07T07:03:28.445Z,94.08
2017-11-07T07:04:40.748Z,93.89
2017-11-07T07:05:53.018Z,93.89
2017-11-07T07:07:05.619Z,93.8
2017-11-07T07:08:18.263Z,93.7
2017-11-07T07:09:30.576Z,93.89
2017-11-07T07:10:43.168Z,94.08
2017-11-07T07:11:55.754Z,93.89
2017-11-07T07:13:08.345Z,93.8
2017-11-07T07:14:20.662Z,93.89
2017-11-07T07:15:32.633Z,93.65
2017-11-07T07:16:44.908Z,93.89
2017-11-07T07:17:57.518Z,93.7
2017-11-07T07:19:10.123Z,94.04
2017-11-07T07:20:22.686Z,93.94
2017-11-07T07:21:34.987Z,94.04
2017-11-07T07:22:46.953Z,93.75
2017-11-07T07:23:59.231Z,93.94
2017-11-07T07:25:10.577Z,93.65
2017-11-07T07:26:22.561Z,93.65
2017-11-07T07:27:35.156Z,93.94
2017-11-07T07:28:47.453Z,93.56
2017-11-07T07:30:00.040Z,93.56
2017-11-07T07:31:12.643Z,93.56
2017-11-07T07:32:24.623Z,93.65
2017-11-07T07:33:36.907Z,93.08
2017-11-07T07:34:48.875Z,93.37
2017-11-07T07:36:01.504Z,93.18
2017-11-07T07:37:13.796Z,93.18
2017-11-07T07:38:26.376Z,93.37
2017-11-07T07:39:38.975Z,92.99
2017-11-07T07:40:51.597Z,92.99
2017-11-07T07:42:04.207Z,93.08
2017-11-07T07:43:16.158Z,92.8
2017-11-07T07:44:28.424Z,92.9
2017-11-07T07:45:41.070Z,92.99
2017-11-07T07:46:53.699Z,93.08
2017-11-07T07:48:05.994Z,92.71
2017-11-07T07:49:18.281Z,92.61
2017-11-07T07:50:30.585Z,92.24
2017-11-07T07:51:42.855Z,92.61
2017-11-07T07:52:55.452Z,92.43
2017-11-07T07:54:08.044Z,92.05
2017-11-07T07:55:20.335Z,92.33
2017-11-07T07:56:32.935Z,92.33
2017-11-07T07:57:45.209Z,92.05
2017-11-07T07:58:57.752Z,91.95
2017-11-07T08:00:10.050Z,91.95
2017-11-07T08:01:21.999Z,91.76
2017-11-07T08:02:33.942Z,92.14
2017-11-07T08:03:46.561Z,91.57
2017-11-07T08:04:58.832Z,91.76
2017-11-07T08:06:10.475Z,91.86
2017-11-07T08:07:22.750Z,91.33
2017-11-07T08:08:35.340Z,91.14
2017-11-07T08:09:47.938Z,91.14
2017-11-07T08:11:00.208Z,91.05
2017-11-07T08:12:12.496Z,90.67
2017-11-07T08:13:24.778Z,90.48
2017-11-07T08:14:37.070Z,90.58
2017-11-07T08:15:49.362Z,90.48
2017-11-07T08:17:01.937Z,90.48
2017-11-07T08:18:14.534Z,90.01
2017-11-07T08:19:27.148Z,89.91
2017-11-07T08:20:39.693Z,90.1
2017-11-07T08:21:52.314Z,89.72
2017-11-07T08:23:04.289Z,89.82
2017-11-07T08:24:16.593Z,89.72
2017-11-07T08:25:29.180Z,89.44
2017-11-07T08:26:41.797Z,89.82
2017-11-07T08:27:53.772Z,89.72
2017-11-07T08:29:06.072Z,89.72
2017-11-07T08:30:18.683Z,89.86
2017-11-07T08:31:31.028Z,89.58
2017-11-07T08:32:43.648Z,89.58
2017-11-07T08:33:56.225Z,89.58
2017-11-07T08:35:08.820Z,89.67
2017-11-07T08:36:21.109Z,89.58
2017-11-07T08:37:33.719Z,89.58
2017-11-07T08:38:45.662Z,89.58
2017-11-07T08:39:57.324Z,89.58
2017-11-07T08:41:09.624Z,89.58
2017-11-07T08:42:21.923Z,89.58
2017-11-07T08:43:33.891Z,89.39
2017-11-07T08:44:46.157Z,89.39
2017-11-07T08:45:58.762Z,89.48
2017-11-07T08:47:11.060Z,89.39
2017-11-07T08:48:23.350Z,89.39
2017-11-07T08:49:35.926Z,89.58
2017-11-07T08:50:47.913Z,89.58
2017-11-07T08:52:00.510Z,89.58
2017-11-07T08:53:13.126Z,89.29
2017-11-07T08:54:25.726Z,89.48
2017-11-07T08:55:38.339Z,89.29
2017-11-07T08:56:50.942Z,89.39
2017-11-07T08:58:03.805Z,89.72
2017-11-07T08:59:15.764Z,89.48
2017-11-07T09:00:28.048Z,89.53
2017-11-07T09:01:40.651Z,89.91
2017-11-07T09:02:52.624Z,89.62
2017-11-07T09:04:04.592Z,89.72
2017-11-07T09:05:16.868Z,89.62
2017-11-07T09:06:29.463Z,89.62
2017-11-07T09:07:42.098Z,89.34
2017-11-07T09:08:54.391Z,90
2017-11-07T09:10:06.674Z,89.62
2017-11-07T09:11:18.968Z,89.91
2017-11-07T09:12:30.956Z,89.81
2017-11-07T09:13:43.273Z,90.38
2017-11-07T09:14:55.556Z,90.57
2017-11-07T09:16:07.840Z,90.67
2017-11-07T09:17:20.439Z,90.67
2017-11-07T09:18:32.740Z,90.57
2017-11-07T09:19:45.341Z,91.24
2017-11-07T09:20:57.947Z,91.9
2017-11-07T09:22:10.560Z,92.09
2017-11-07T09:23:23.168Z,92.57
2017-11-07T09:24:35.793Z,92.57
2017-11-07T09:25:48.379Z,92.76
2017-11-07T09:27:00.664Z,94.08
2017-11-07T09:28:12.959Z,94.37
2017-11-07T09:29:24.906Z,94.56
2017-11-07T09:30:37.549Z,93.8
2017-11-07T09:31:50.137Z,94.08
2017-11-07T09:33:02.769Z,95.12
2017-11-07T09:34:15.366Z,95.41
2017-11-07T09:35:27.983Z,95.6
2017-11-07T09:36:40.566Z,97.59
2017-11-07T09:37:53.169Z,98.35
2017-11-07T09:39:05.785Z,98.82
2017-11-07T09:40:18.082Z,97.4
2017-11-07T09:41:30.698Z,96.78
2017-11-07T09:42:43.290Z,99.16
2017-11-07T09:43:55.903Z,99.99
2017-11-07T09:45:08.510Z,99.73
2017-11-07T09:46:21.135Z,99.63
2017-11-07T09:47:33.427Z,98.11
